Time;durP1;ratioP1;P1;durP2;ratioP2;P2;SDS_P1;SDS_P2;PMS_P1;PMS_P2;Temp;Humidity;BMP_temperature;BMP_pressure;BME280_temperature;BME280_humidity;BME280_pressure;Samples;Min_cycle;Max_cycle;Signal;HPM_P1;HPM_P2
2022/03/02 00:00:13;;;;;;;25.30;10.32;;;;;;;-2.19;65.98;97317.19;2073773;28;20245;-63
2022/03/02 00:01:15;;;;;;;24.77;11.57;;;;;;;-1.97;65.77;97317.88;2074404;28;20206;-63
2022/03/02 00:02:17;;;;;;;27.45;11.65;;;;;;;-1.98;66.16;97313.59;2075804;28;20199;-63
2022/03/02 00:03:18;;;;;;;23.30;10.68;;;;;;;-1.80;65.30;97316.03;2076053;28;20193;-63
2022/03/02 00:04:20;;;;;;;22.20;10.48;;;;;;;-1.82;65.38;97317.75;2075431;28;20203;-64
2022/03/02 00:05:24;;;;;;;19.42;10.85;;;;;;;-1.91;65.80;97310.13;2075100;28;20218;-63
2022/03/02 00:06:25;;;;;;;26.05;11.10;;;;;;;-1.90;66.16;97316.97;2076336;28;20198;-63
2022/03/02 00:07:27;;;;;;;21.05;10.85;;;;;;;-1.95;66.23;97313.56;2074388;28;20197;-63
2022/03/02 00:08:28;;;;;;;23.63;11.13;;;;;;;-1.83;66.24;97313.47;2075446;28;20686;-63
2022/03/02 00:09:30;;;;;;;22.25;11.80;;;;;;;-1.75;65.69;97315.13;2075848;28;20197;-63
2022/03/02 00:10:32;;;;;;;23.83;11.45;;;;;;;-1.95;66.20;97308.44;2074442;28;20295;-64
2022/03/02 00:11:34;;;;;;;22.23;12.68;;;;;;;-1.91;66.11;97307.56;2074871;28;20199;-63
2022/03/02 00:12:35;;;;;;;29.65;12.73;;;;;;;-1.94;65.79;97309.28;2075896;28;20206;-63
2022/03/02 00:13:37;;;;;;;28.95;12.80;;;;;;;-1.90;65.80;97303.25;2074301;28;20245;-63
2022/03/02 00:14:39;;;;;;;25.27;12.18;;;;;;;-1.90;65.69;97306.69;2075724;28;20642;-63
2022/03/02 00:15:40;;;;;;;33.40;12.40;;;;;;;-1.82;66.08;97312.63;2076687;28;20646;-63
2022/03/02 00:16:42;;;;;;;32.88;12.65;;;;;;;-1.69;65.58;97309.94;2075963;28;20558;-63
2022/03/02 00:17:43;;;;;;;26.35;12.85;;;;;;;-1.74;66.08;97311.72;2077639;28;20194;-63
2022/03/02 00:18:45;;;;;;;26.35;11.52;;;;;;;-1.67;65.48;97313.34;2073536;28;20196;-63
2022/03/02 00:19:46;;;;;;;22.63;11.20;;;;;;;-1.67;64.83;97309.06;2075393;28;20200;-63
2022/03/02 00:20:48;;;;;;;30.67;11.15;;;;;;;-1.65;63.74;97312.47;2076917;28;20198;-63
2022/03/02 00:21:49;;;;;;;18.77;9.57;;;;;;;-1.75;61.89;97310.84;2074493;28;20740;-64
2022/03/02 00:22:52;;;;;;;19.85;10.10;;;;;;;-1.64;62.06;97313.34;2075481;28;20195;-63
2022/03/02 00:23:54;;;;;;;22.80;10.88;;;;;;;-1.48;62.14;97319.16;2077890;28;20201;-63
2022/03/02 00:24:55;;;;;;;21.00;9.85;;;;;;;-1.53;62.88;97316.66;2075533;28;20219;-63
2022/03/02 00:25:57;;;;;;;19.83;9.88;;;;;;;-1.50;62.65;97316.63;2076799;28;20209;-63
2022/03/02 00:26:59;;;;;;;26.05;11.35;;;;;;;-1.43;62.79;97322.53;2078296;28;20732;-63
2022/03/02 00:28:01;;;;;;;21.98;10.55;;;;;;;-1.48;63.71;97320.00;2077389;28;20214;-63
2022/03/02 00:29:02;;;;;;;25.58;12.73;;;;;;;-1.46;63.73;97313.13;2075620;28;20214;-63
2022/03/02 00:30:06;;;;;;;33.03;12.00;;;;;;;-1.40;63.72;97313.06;2077383;28;20898;-63
2022/03/02 00:31:08;;;;;;;25.65;12.45;;;;;;;-1.55;63.85;97317.50;2077022;28;20202;-63
2022/03/02 00:32:10;;;;;;;24.38;12.35;;;;;;;-1.58;64.43;97322.69;2078062;28;20194;-63
2022/03/02 00:33:12;;;;;;;28.55;13.13;;;;;;;-1.54;64.41;97320.09;2076545;28;20370;-63
2022/03/02 00:34:13;;;;;;;22.30;11.95;;;;;;;-1.56;64.61;97320.97;2077836;28;20203;-63
2022/03/02 00:35:15;;;;;;;28.80;13.43;;;;;;;-1.51;64.72;97314.94;2078807;28;20223;-63
2022/03/02 00:36:16;;;;;;;21.67;12.23;;;;;;;-1.30;63.89;97318.13;2077066;28;20194;-63
2022/03/02 00:37:18;;;;;;;25.05;12.45;;;;;;;-1.35;64.81;97314.75;2078557;28;20647;-63
2022/03/02 00:38:19;;;;;;;22.02;12.05;;;;;;;-1.41;64.77;97316.53;2077768;28;20196;-63
2022/03/02 00:39:21;;;;;;;22.17;11.85;;;;;;;-1.11;64.04;97323.94;2077756;28;20190;-63
2022/03/02 00:40:23;;;;;;;27.23;12.57;;;;;;;-1.09;63.03;97312.75;2076674;28;20693;-63
2022/03/02 00:41:24;;;;;;;25.30;10.95;;;;;;;-1.26;63.58;97310.38;2076708;28;20382;-63
2022/03/02 00:42:29;;;;;;;20.73;11.18;;;;;;;-1.28;63.59;97306.13;2076640;28;20667;-63
2022/03/02 00:43:31;;;;;;;17.92;10.50;;;;;;;-1.31;63.92;97308.75;2074782;28;20195;-63
2022/03/02 00:44:33;;;;;;;23.65;11.70;;;;;;;-1.34;64.44;97301.88;2074388;28;20199;-63
2022/03/02 00:45:36;;;;;;;17.15;10.27;;;;;;;-1.41;64.58;97301.13;2075040;28;20744;-63
2022/03/02 00:46:38;;;;;;;23.50;10.88;;;;;;;-1.33;64.85;97307.88;2075579;28;20200;-64
2022/03/02 00:47:39;;;;;;;20.65;10.80;;;;;;;-1.23;64.34;97301.78;2075606;28;20211;-63
2022/03/02 00:48:41;;;;;;;23.98;9.80;;;;;;;-1.12;63.25;97305.06;2075952;28;20287;-64
2022/03/02 00:49:43;;;;;;;19.60;9.68;;;;;;;-1.06;62.17;97302.47;2076357;28;20611;-63
2022/03/02 00:50:45;;;;;;;18.15;9.40;;;;;;;-0.96;61.18;97307.47;2077184;28;20213;-63
2022/03/02 00:51:46;;;;;;;20.55;10.65;;;;;;;-0.97;62.36;97308.34;2076759;28;20196;-63
2022/03/02 00:52:48;;;;;;;21.65;10.65;;;;;;;-0.88;63.16;97301.38;2077411;28;20237;-63
2022/03/02 00:53:52;;;;;;;19.13;10.30;;;;;;;-0.84;63.07;97297.06;2076524;28;20195;-64
2022/03/02 00:54:55;;;;;;;17.13;9.25;;;;;;;-0.83;63.57;97302.16;2074566;28;20226;-63
2022/03/02 00:55:56;;;;;;;24.23;9.73;;;;;;;-0.97;59.80;97303.22;2076191;28;20207;-63
2022/03/02 00:56:58;;;;;;;23.52;9.57;;;;;;;-0.84;60.11;97297.06;2078518;28;20212;-63
2022/03/02 00:58:00;;;;;;;18.73;8.63;;;;;;;-0.71;60.47;97306.28;2078679;28;20236;-63
2022/03/02 00:59:02;;;;;;;20.83;8.90;;;;;;;-0.70;60.70;97304.59;2076707;28;20196;-63
2022/03/02 01:00:06;;;;;;;19.35;9.38;;;;;;;-0.70;59.58;97313.16;2076987;28;20217;-63
2022/03/02 01:01:07;;;;;;;21.55;9.25;;;;;;;-0.69;58.93;97301.13;2078197;28;20197;-63
2022/03/02 01:02:09;;;;;;;22.77;11.60;;;;;;;-0.65;60.70;97305.38;2075902;28;20209;-63
2022/03/02 01:03:11;;;;;;;27.23;11.63;;;;;;;-0.85;61.70;97308.19;2075758;28;20645;-63
2022/03/02 01:04:12;;;;;;;36.65;13.32;;;;;;;-0.97;62.49;97305.78;2074652;28;20544;-63
2022/03/02 01:05:14;;;;;;;24.40;12.10;;;;;;;-1.15;63.70;97299.13;2074504;28;20234;-63
2022/03/02 01:06:17;;;;;;;30.05;14.80;;;;;;;-1.33;64.03;97300.16;2075753;28;20194;-63
2022/03/02 01:07:18;;;;;;;26.70;13.23;;;;;;;-1.54;65.13;97296.97;2076748;28;20194;-63
2022/03/02 01:08:20;;;;;;;22.60;12.82;;;;;;;-1.71;65.74;97294.53;2078739;28;20200;-63
2022/03/02 01:09:21;;;;;;;27.23;12.52;;;;;;;-1.84;66.06;97300.66;2077378;28;20215;-63
2022/03/02 01:10:23;;;;;;;27.63;13.27;;;;;;;-1.93;66.56;97296.44;2074847;28;20329;-64
2022/03/02 01:11:24;;;;;;;29.00;12.50;;;;;;;-1.92;66.70;97298.16;2075921;28;20533;-63
2022/03/02 01:12:26;;;;;;;29.70;12.60;;;;;;;-1.97;67.26;97284.50;2079549;28;20636;-63
2022/03/02 01:13:27;;;;;;;31.98;15.05;;;;;;;-1.95;66.66;97285.34;2076628;28;20197;-63
2022/03/02 01:14:29;;;;;;;35.47;14.70;;;;;;;-1.95;66.60;97282.78;2078650;28;20197;-62
2022/03/02 01:15:31;;;;;;;25.92;14.35;;;;;;;-1.79;66.40;97284.31;2078877;28;20198;-63
2022/03/02 01:16:33;;;;;;;31.00;14.55;;;;;;;-1.90;66.63;97280.16;2076340;28;20221;-63
2022/03/02 01:17:35;;;;;;;29.08;14.48;;;;;;;-1.87;66.67;97275.00;2078415;28;20249;-63
2022/03/02 01:18:36;;;;;;;30.15;13.10;;;;;;;-1.92;66.82;97276.75;2076607;28;20218;-63
2022/03/02 01:19:39;;;;;;;25.13;12.55;;;;;;;-1.86;66.87;97272.44;2076659;28;20554;-63
2022/03/02 01:20:40;;;;;;;28.30;14.13;;;;;;;-1.84;66.71;97263.00;2075683;28;20201;-63
2022/03/02 01:21:42;;;;;;;24.45;13.00;;;;;;;-1.61;66.57;97267.91;2076867;28;20194;-63
2022/03/02 01:22:43;;;;;;;20.98;12.57;;;;;;;-1.63;66.78;97264.50;2075308;28;20198;-63
2022/03/02 01:23:45;;;;;;;26.30;12.70;;;;;;;-1.57;66.90;97262.72;2075196;28;20657;-63
2022/03/02 01:24:46;;;;;;;27.05;12.48;;;;;;;-1.64;66.12;97251.69;2076471;28;20202;-64
2022/03/02 01:25:48;;;;;;;23.52;11.35;;;;;;;-1.52;66.00;97259.25;2075492;28;20202;-63
2022/03/02 01:26:49;;;;;;;23.27;10.93;;;;;;;-1.52;65.19;97258.41;2078032;28;20512;-63
2022/03/02 01:27:51;;;;;;;24.45;11.68;;;;;;;-1.50;65.01;97262.66;2075083;28;20203;-63
2022/03/02 01:28:56;;;;;;;22.63;11.00;;;;;;;-1.54;65.06;97260.16;2075691;28;20201;-64
2022/03/02 01:29:57;;;;;;;24.98;10.70;;;;;;;-1.50;64.90;97264.38;2075638;28;20223;-63
2022/03/02 01:30:59;;;;;;;24.25;10.20;;;;;;;-1.48;65.45;97258.34;2076576;28;20205;-63
2022/03/02 01:32:04;;;;;;;19.65;10.52;;;;;;;-1.36;64.79;97259.09;2076107;28;20201;-63
2022/03/02 01:33:06;;;;;;;20.08;10.95;;;;;;;-1.36;64.75;97254.78;2076305;28;20201;-63
2022/03/02 01:34:07;;;;;;;17.95;10.68;;;;;;;-1.38;64.50;97253.97;2075806;28;20209;-63
2022/03/02 01:35:11;;;;;;;23.58;11.00;;;;;;;-1.26;64.30;97258.13;2076722;28;20686;-63
2022/03/02 01:36:12;;;;;;;20.10;10.10;;;;;;;-1.48;63.99;97250.66;2077537;28;20250;-63
2022/03/02 01:37:14;;;;;;;24.08;11.27;;;;;;;-1.44;64.13;97236.88;2076359;28;20200;-63
2022/03/02 01:38:16;;;;;;;25.17;12.43;;;;;;;-1.44;64.63;97242.03;2076771;28;20234;-64
2022/03/02 01:39:18;;;;;;;24.35;11.50;;;;;;;-1.40;64.61;97238.56;2076074;28;20198;-63
2022/03/02 01:40:20;;;;;;;21.08;11.77;;;;;;;-1.44;64.19;97248.91;2077126;28;20219;-63
2022/03/02 01:41:24;;;;;;;19.00;10.50;;;;;;;-1.39;62.93;97242.00;2076965;28;20196;-63
2022/03/02 01:42:26;;;;;;;23.38;9.38;;;;;;;-1.33;62.22;97238.47;2077421;28;20207;-63
2022/03/02 01:43:28;;;;;;;17.98;8.98;;;;;;;-1.26;60.84;97235.81;2076485;28;20630;-63
2022/03/02 01:44:29;;;;;;;15.07;8.80;;;;;;;-1.12;60.12;97240.78;2075278;28;20697;-63
2022/03/02 01:45:31;;;;;;;15.75;7.90;;;;;;;-1.07;59.11;97239.03;2079211;28;20202;-63
2022/03/02 01:46:32;;;;;;;16.23;8.13;;;;;;;-0.89;57.70;97237.09;2077403;28;20636;-63
2022/03/02 01:47:34;;;;;;;22.30;8.98;;;;;;;-0.79;57.37;97228.38;2080519;28;20635;-63
2022/03/02 01:48:36;;;;;;;15.40;8.88;;;;;;;-0.78;57.90;97230.09;2076621;28;20646;-63
2022/03/02 01:49:37;;;;;;;15.10;8.60;;;;;;;-0.82;58.77;97231.00;2074760;28;20210;-63
2022/03/02 01:50:39;;;;;;;18.00;8.75;;;;;;;-0.70;58.53;97220.53;2076215;28;20538;-63
2022/03/02 01:51:40;;;;;;;17.20;9.32;;;;;;;-0.70;58.73;97223.13;2077640;28;20201;-63
2022/03/02 01:52:42;;;;;;;18.90;8.57;;;;;;;-0.82;59.29;97208.72;2075998;28;20196;-63
2022/03/02 01:53:45;;;;;;;16.10;8.45;;;;;;;-0.88;59.57;97213.94;2076725;28;20781;-63
2022/03/02 01:54:46;;;;;;;20.50;9.55;;;;;;;-0.90;59.72;97217.38;2077230;28;20209;-63
2022/03/02 01:55:48;;;;;;;21.48;10.55;;;;;;;-0.91;60.12;97218.28;2075984;28;20220;-63
2022/03/02 01:56:50;;;;;;;18.65;9.13;;;;;;;-0.93;59.73;97212.31;2076850;28;20663;-63
2022/03/02 01:57:51;;;;;;;15.80;9.27;;;;;;;-0.96;60.29;97218.34;2076582;28;20199;-63
2022/03/02 01:58:53;;;;;;;16.27;9.20;;;;;;;-1.04;60.44;97213.28;2076801;28;20209;-63
2022/03/02 01:59:55;;;;;;;15.23;8.55;;;;;;;-0.98;60.42;97211.50;2076087;28;20614;-63
2022/03/02 02:00:57;;;;;;;17.30;9.60;;;;;;;-0.96;60.50;97209.75;2076456;28;20557;-63
2022/03/02 02:01:59;;;;;;;18.02;9.57;;;;;;;-1.04;60.92;97207.28;2076703;28;20373;-63
2022/03/02 02:03:01;;;;;;;25.23;9.52;;;;;;;-1.01;60.93;97208.09;2074869;28;20653;-63
2022/03/02 02:04:04;;;;;;;18.20;8.43;;;;;;;-1.04;61.02;97203.00;2077337;28;20201;-63
2022/03/02 02:05:06;;;;;;;18.48;9.05;;;;;;;-1.07;60.44;97204.78;2077229;28;21102;-63
2022/03/02 02:06:08;;;;;;;17.05;7.75;;;;;;;-1.11;60.05;97201.38;2077633;28;20204;-64
2022/03/02 02:07:09;;;;;;;18.80;9.27;;;;;;;-1.07;60.28;97197.91;2079074;28;20185;-63
2022/03/02 02:08:12;;;;;;;18.30;7.82;;;;;;;-0.92;59.51;97199.44;2078715;28;20210;-63
2022/03/02 02:09:13;;;;;;;15.25;8.65;;;;;;;-0.88;60.06;97205.34;2079425;28;20232;-63
2022/03/02 02:10:16;;;;;;;16.30;8.57;;;;;;;-0.98;60.28;97208.94;2076131;28;20227;-63
2022/03/02 02:11:17;;;;;;;16.95;8.80;;;;;;;-1.07;60.61;97204.78;2074861;28;20274;-63
2022/03/02 02:12:19;;;;;;;17.90;9.05;;;;;;;-1.18;60.97;97194.59;2078591;28;20195;-63
2022/03/02 02:13:20;;;;;;;18.02;9.32;;;;;;;-1.14;61.02;97206.56;2077821;28;20211;-63
2022/03/02 02:14:22;;;;;;;21.17;9.68;;;;;;;-1.22;61.18;97208.38;2076626;28;20199;-63
2022/03/02 02:15:24;;;;;;;16.25;8.82;;;;;;;-1.15;61.30;97199.72;2076444;28;20679;-63
2022/03/02 02:16:25;;;;;;;22.52;9.20;;;;;;;-1.23;61.05;97201.53;2077053;28;20693;-63
2022/03/02 02:17:27;;;;;;;18.55;8.50;;;;;;;-1.17;60.75;97191.19;2076120;28;20442;-64
2022/03/02 02:18:28;;;;;;;16.17;9.10;;;;;;;-1.38;61.33;97188.88;2076581;28;20206;-63
2022/03/02 02:19:30;;;;;;;25.20;12.10;;;;;;;-1.36;64.20;97198.25;2076330;28;20207;-63
2022/03/02 02:20:37;;;;;;;21.15;10.57;;;;;;;-1.61;64.96;97193.41;2075492;28;20212;-64
2022/03/02 02:21:38;;;;;;;26.33;11.30;;;;;;;-1.57;65.00;97195.94;2071022;28;20661;-63
2022/03/02 02:22:46;;;;;;;21.55;12.05;;;;;;;-1.72;66.42;97200.38;2071101;28;20210;-63
2022/03/02 02:23:50;;;;;;;23.60;12.77;;;;;;;-1.82;66.57;97198.78;2074935;28;20203;-63
2022/03/02 02:24:51;;;;;;;22.77;12.95;;;;;;;-1.81;66.45;97198.75;2075175;28;20271;-63
2022/03/02 02:25:53;;;;;;;21.88;11.15;;;;;;;-1.76;66.50;97200.41;2075982;28;20668;-63
2022/03/02 02:26:55;;;;;;;23.65;11.10;;;;;;;-1.81;66.50;97208.19;2074810;28;20194;-63
2022/03/02 02:27:56;;;;;;;27.67;11.93;;;;;;;-1.94;67.17;97207.47;2074913;28;20196;-63
2022/03/02 02:28:58;;;;;;;26.60;12.20;;;;;;;-2.01;67.61;97198.09;2076536;28;20615;-63
2022/03/02 02:30:02;;;;;;;31.23;13.25;;;;;;;-2.14;68.48;97201.66;2077851;28;20720;-63
2022/03/02 02:31:04;;;;;;;31.13;12.98;;;;;;;-2.25;68.94;97205.16;2077293;28;20204;-63
2022/03/02 02:32:06;;;;;;;24.10;11.10;;;;;;;-2.36;68.99;97199.25;2076461;28;20226;-63
2022/03/02 02:33:07;;;;;;;25.95;11.65;;;;;;;-2.32;69.43;97200.94;2075582;28;20206;-63
2022/03/02 02:34:09;;;;;;;24.92;12.00;;;;;;;-2.46;69.46;97203.59;2077125;28;20198;-63
2022/03/02 02:35:11;;;;;;;25.63;11.95;;;;;;;-2.51;69.31;97196.81;2074744;28;20225;-63
2022/03/02 02:36:14;;;;;;;27.17;12.48;;;;;;;-2.46;69.44;97195.06;2075734;28;20542;-63
2022/03/02 02:37:16;;;;;;;21.35;11.02;;;;;;;-2.50;69.08;97186.53;2075455;28;20200;-63
2022/03/02 02:38:21;;;;;;;22.88;11.02;;;;;;;-2.38;68.80;97195.84;2074652;28;20201;-63
2022/03/02 02:39:24;;;;;;;28.30;12.10;;;;;;;-2.36;68.67;97199.25;2078583;28;20201;-63
2022/03/02 02:40:27;;;;;;;28.95;12.27;;;;;;;-2.26;68.54;97190.63;2076165;28;20228;-63
2022/03/02 02:41:28;;;;;;;24.92;12.50;;;;;;;-2.29;68.63;97194.94;2075861;28;20201;-63
2022/03/02 02:42:30;;;;;;;22.92;12.05;;;;;;;-2.32;68.59;97190.66;2075500;28;20232;-63
2022/03/02 02:43:31;;;;;;;30.85;12.50;;;;;;;-2.23;68.21;97190.59;2074004;28;20637;-63
2022/03/02 02:44:36;;;;;;;23.92;11.90;;;;;;;-2.41;68.43;97180.47;2076063;28;20621;-63
2022/03/02 02:45:38;;;;;;;23.38;11.75;;;;;;;-2.36;68.44;97188.16;2076439;28;20205;-63
2022/03/02 02:46:44;;;;;;;25.73;11.35;;;;;;;-2.34;68.46;97189.00;2076097;28;20201;-63
2022/03/02 02:47:47;;;;;;;24.60;11.52;;;;;;;-2.28;68.33;97184.66;2076682;28;20199;-62
2022/03/02 02:48:48;;;;;;;27.88;11.90;;;;;;;-2.12;67.75;97190.50;2077177;28;20205;-63
2022/03/02 02:49:50;;;;;;;25.38;12.20;;;;;;;-2.21;68.01;97188.88;2074417;28;21347;-62
2022/03/02 02:50:52;;;;;;;23.95;11.02;;;;;;;-2.16;67.50;97186.25;2075324;28;20640;-63
2022/03/02 02:51:54;;;;;;;24.85;12.15;;;;;;;-2.22;67.17;97182.03;2078569;28;20193;-63
2022/03/02 02:52:58;;;;;;;22.52;11.57;;;;;;;-2.23;67.24;97194.88;2073900;28;20233;-63
2022/03/02 02:54:01;;;;;;;21.67;11.68;;;;;;;-2.15;66.82;97192.25;2075821;28;20207;-63
2022/03/02 02:55:07;;;;;;;29.35;12.57;;;;;;;-2.20;66.96;97190.56;2075708;28;20975;-63
2022/03/02 02:56:09;;;;;;;24.42;11.55;;;;;;;-2.22;66.77;97194.00;2075543;28;20198;-63
2022/03/02 02:57:10;;;;;;;22.25;11.50;;;;;;;-2.27;67.57;97190.66;2074914;28;20714;-63
2022/03/02 02:58:13;;;;;;;21.60;10.25;;;;;;;-2.36;67.56;97199.25;2079126;28;20709;-63
2022/03/02 02:59:14;;;;;;;20.08;10.85;;;;;;;-2.35;67.23;97195.84;2076325;28;20534;-64
2022/03/02 03:00:18;;;;;;;20.00;11.35;;;;;;;-2.32;66.89;97189.81;2074770;28;20592;-63
2022/03/02 03:01:19;;;;;;;28.35;12.75;;;;;;;-2.41;67.02;97193.31;2072766;28;20198;-63
2022/03/02 03:02:21;;;;;;;26.73;12.13;;;;;;;-2.52;67.67;97203.66;2075457;28;20280;-63
2022/03/02 03:03:23;;;;;;;25.73;12.05;;;;;;;-2.46;67.99;97190.78;2074904;28;20221;-63
2022/03/02 03:04:24;;;;;;;21.45;11.80;;;;;;;-2.54;68.39;97182.31;2075496;28;20249;-63
2022/03/02 03:05:29;;;;;;;26.45;12.13;;;;;;;-2.53;68.67;97190.84;2076599;28;20214;-62
2022/03/02 03:06:31;;;;;;;28.83;12.25;;;;;;;-2.60;68.95;97185.75;2074844;28;20201;-63
2022/03/02 03:07:32;;;;;;;25.00;12.20;;;;;;;-2.64;69.41;97189.22;2075052;28;20201;-63
2022/03/02 03:08:34;;;;;;;21.77;11.55;;;;;;;-2.68;69.87;97189.25;2074800;28;20197;-62
2022/03/02 03:09:35;;;;;;;27.55;12.00;;;;;;;-2.54;69.02;97184.03;2076944;28;20198;-63
2022/03/02 03:10:40;;;;;;;23.52;11.60;;;;;;;-2.55;69.10;97179.75;2076781;28;20618;-63
2022/03/02 03:11:42;;;;;;;31.88;11.60;;;;;;;-2.45;68.29;97189.06;2074435;28;20584;-63
2022/03/02 03:12:45;;;;;;;24.98;11.90;;;;;;;-2.51;68.17;97186.56;2076235;28;20533;-63
2022/03/02 03:13:46;;;;;;;27.90;11.77;;;;;;;-2.59;68.40;97181.47;2076642;28;20198;-63
2022/03/02 03:14:48;;;;;;;20.92;10.40;;;;;;;-2.56;68.37;97183.19;2074822;28;20208;-63
2022/03/02 03:15:49;;;;;;;28.80;11.43;;;;;;;-2.38;67.70;97186.44;2075468;28;20198;-63
2022/03/02 03:16:50;;;;;;;23.02;11.32;;;;;;;-2.37;67.45;97174.47;2074538;28;20206;-63
2022/03/02 03:17:52;;;;;;;26.55;12.50;;;;;;;-2.40;67.87;97182.19;2077527;28;20200;-63
2022/03/02 03:18:54;;;;;;;23.92;12.13;;;;;;;-2.38;67.43;97171.03;2075172;28;20200;-63
2022/03/02 03:19:55;;;;;;;21.65;11.38;;;;;;;-2.41;68.15;97175.34;2075420;28;20618;-63
2022/03/02 03:20:57;;;;;;;24.35;10.75;;;;;;;-2.39;68.11;97169.34;2076479;28;20560;-63
2022/03/02 03:22:06;;;;;;;26.23;11.48;;;;;;;-2.48;68.49;97171.16;2075806;28;20204;-63
2022/03/02 03:23:08;;;;;;;24.27;12.68;;;;;;;-2.45;68.39;97174.53;2075342;28;20810;-63
2022/03/02 03:24:09;;;;;;;22.67;11.20;;;;;;;-2.48;68.33;97173.72;2075305;28;20194;-63
2022/03/02 03:25:12;;;;;;;22.20;11.25;;;;;;;-2.34;67.80;97168.47;2076349;28;20232;-62
2022/03/02 03:26:14;;;;;;;21.33;9.57;;;;;;;-2.35;67.45;97164.19;2077311;28;20714;-62
2022/03/02 03:27:16;;;;;;;27.20;10.48;;;;;;;-2.51;67.58;97166.91;2075883;28;20199;-63
2022/03/02 03:28:18;;;;;;;19.83;10.85;;;;;;;-2.55;67.47;97166.91;2076016;28;20222;-63
2022/03/02 03:29:19;;;;;;;21.45;10.95;;;;;;;-2.61;67.42;97163.56;2076072;28;20229;-63
2022/03/02 03:30:23;;;;;;;21.48;11.30;;;;;;;-2.62;67.87;97163.56;2074645;28;20233;-63
2022/03/02 03:31:25;;;;;;;20.88;9.98;;;;;;;-2.64;67.61;97161.00;2073989;28;20396;-63
2022/03/02 03:32:27;;;;;;;18.83;9.60;;;;;;;-2.59;67.21;97164.41;2075813;28;20193;-63
2022/03/02 03:33:28;;;;;;;23.88;9.65;;;;;;;-2.49;66.83;97162.59;2073059;28;20207;-63
2022/03/02 03:34:30;;;;;;;22.50;9.95;;;;;;;-2.46;66.63;97156.59;2076522;28;20202;-62
2022/03/02 03:35:32;;;;;;;19.20;10.57;;;;;;;-2.56;66.75;97154.97;2076904;28;20649;-63
2022/03/02 03:36:33;;;;;;;21.23;9.75;;;;;;;-2.78;67.06;97161.09;2073592;28;20204;-63
2022/03/02 03:37:35;;;;;;;16.42;9.55;;;;;;;-2.82;67.34;97161.16;2075884;28;20208;-63
2022/03/02 03:38:37;;;;;;;18.65;9.85;;;;;;;-2.75;67.55;97160.22;2075881;28;20653;-63
2022/03/02 03:39:39;;;;;;;22.27;9.68;;;;;;;-2.66;67.44;97164.44;2076380;28;20212;-63
2022/03/02 03:40:40;;;;;;;26.20;11.20;;;;;;;-2.61;67.46;97166.13;2074460;28;20198;-63
2022/03/02 03:41:42;;;;;;;19.75;10.32;;;;;;;-2.51;67.00;97164.34;2072265;28;20198;-63
2022/03/02 03:42:45;;;;;;;19.48;10.02;;;;;;;-2.59;66.25;97161.84;2074377;28;20197;-63
2022/03/02 03:43:47;;;;;;;20.52;9.85;;;;;;;-2.68;65.96;97158.47;2076239;28;20715;-63
2022/03/02 03:44:49;;;;;;;21.02;10.02;;;;;;;-2.81;66.47;97157.72;2074899;28;20225;-63
2022/03/02 03:45:51;;;;;;;19.75;9.45;;;;;;;-2.73;67.04;97155.94;2074278;28;20198;-63
2022/03/02 03:46:53;;;;;;;19.27;10.25;;;;;;;-2.72;67.04;97154.25;2073603;28;20197;-63
2022/03/02 03:47:55;;;;;;;18.30;10.10;;;;;;;-2.63;66.61;97160.16;2076193;28;20751;-63
2022/03/02 03:48:56;;;;;;;19.23;9.88;;;;;;;-2.51;66.73;97160.91;2075278;28;20201;-63
2022/03/02 03:49:58;;;;;;;23.00;10.50;;;;;;;-2.65;66.59;97156.72;2075464;28;20613;-63
2022/03/02 03:50:59;;;;;;;20.63;10.48;;;;;;;-2.62;66.70;97159.28;2076867;28;20617;-63
2022/03/02 03:52:01;;;;;;;21.02;10.30;;;;;;;-2.67;66.72;97161.00;2075481;28;20213;-63
2022/03/02 03:53:02;;;;;;;22.15;9.63;;;;;;;-2.62;66.93;97166.13;2076959;28;20279;-63
2022/03/02 03:54:04;;;;;;;15.45;9.10;;;;;;;-2.63;66.71;97164.41;2075999;28;20221;-63
2022/03/02 03:55:06;;;;;;;17.13;10.10;;;;;;;-2.59;66.76;97160.97;2076794;28;20914;-63
2022/03/02 03:56:08;;;;;;;20.08;9.77;;;;;;;-2.65;67.13;97155.88;2076093;28;20197;-63
2022/03/02 03:57:10;;;;;;;16.48;8.85;;;;;;;-2.72;67.49;97160.22;2075550;28;20647;-63
2022/03/02 03:58:12;;;;;;;19.13;9.38;;;;;;;-2.64;67.35;97157.59;2075486;28;20201;-63
2022/03/02 03:59:14;;;;;;;16.50;9.10;;;;;;;-2.58;67.00;97160.94;2076987;28;20201;-63
2022/03/02 04:00:18;;;;;;;22.45;9.95;;;;;;;-2.62;67.00;97161.84;2078359;28;20244;-63
2022/03/02 04:01:21;;;;;;;17.13;9.07;;;;;;;-2.59;66.80;97164.41;2080164;28;20369;-63
2022/03/02 04:02:22;;;;;;;30.05;10.32;;;;;;;-2.67;66.77;97162.72;2075677;28;20289;-62
2022/03/02 04:03:24;;;;;;;20.50;10.43;;;;;;;-2.72;67.14;97167.91;2077538;28;20193;-63
2022/03/02 04:04:26;;;;;;;20.67;10.10;;;;;;;-2.87;67.52;97156.03;2075558;28;20225;-63
2022/03/02 04:05:28;;;;;;;20.45;10.60;;;;;;;-2.94;67.39;97163.78;2078460;28;20221;-63
2022/03/02 04:06:29;;;;;;;17.63;9.60;;;;;;;-2.95;67.09;97154.41;2075101;28;20197;-63
2022/03/02 04:07:31;;;;;;;17.98;9.18;;;;;;;-2.88;66.99;97161.16;2077833;28;20564;-63
2022/03/02 04:08:32;;;;;;;18.90;9.82;;;;;;;-2.86;67.35;97167.13;2078638;28;20200;-63
2022/03/02 04:09:34;;;;;;;16.40;8.70;;;;;;;-2.96;67.59;97158.66;2080279;28;20204;-63
2022/03/02 04:10:36;;;;;;;20.90;9.68;;;;;;;-2.83;67.41;97162.84;2077807;28;20634;-63
2022/03/02 04:11:38;;;;;;;24.58;9.73;;;;;;;-2.86;67.22;97156.88;2077414;28;20201;-63
2022/03/02 04:12:40;;;;;;;18.35;9.45;;;;;;;-2.84;67.65;97160.31;2076641;28;20198;-63
2022/03/02 04:13:42;;;;;;;17.40;8.43;;;;;;;-2.62;67.16;97156.72;2075975;28;20197;-63
2022/03/02 04:14:44;;;;;;;18.33;10.15;;;;;;;-2.91;67.55;97146.66;2075515;28;20193;-63
2022/03/02 04:15:46;;;;;;;18.50;9.60;;;;;;;-2.90;67.61;97155.19;2076724;28;20193;-63
2022/03/02 04:16:48;;;;;;;17.98;9.68;;;;;;;-2.89;67.50;97154.34;2073340;28;20202;-63
2022/03/02 04:17:49;;;;;;;23.92;9.00;;;;;;;-2.88;67.45;97151.78;2078059;28;20201;-63
2022/03/02 04:18:51;;;;;;;21.67;9.48;;;;;;;-2.83;67.58;97151.75;2077796;28;20214;-63
2022/03/02 04:19:53;;;;;;;21.13;10.27;;;;;;;-2.84;67.31;97143.22;2077209;28;20224;-63
2022/03/02 04:20:54;;;;;;;18.52;9.60;;;;;;;-2.85;67.65;97146.63;2077634;28;20189;-63
2022/03/02 04:21:55;;;;;;;25.85;9.40;;;;;;;-2.90;67.35;97139.81;2078103;28;20201;-63
2022/03/02 04:22:57;;;;;;;17.77;8.75;;;;;;;-3.01;67.55;97137.34;2078634;28;20202;-63
2022/03/02 04:23:59;;;;;;;24.88;9.73;;;;;;;-2.99;67.57;97148.44;2078167;28;20205;-63
2022/03/02 04:25:00;;;;;;;17.02;9.73;;;;;;;-2.82;67.38;97145.78;2076290;28;20225;-63
2022/03/02 04:26:02;;;;;;;21.63;10.18;;;;;;;-2.88;67.17;97138.09;2077069;28;20209;-63
2022/03/02 04:27:05;;;;;;;18.10;8.95;;;;;;;-3.00;67.38;97139.03;2079832;28;20208;-63
2022/03/02 04:28:06;;;;;;;17.05;8.98;;;;;;;-2.97;67.59;97139.03;2076233;28;20201;-63
2022/03/02 04:29:07;;;;;;;15.98;8.10;;;;;;;-2.99;67.68;97136.47;2076422;28;20194;-63
2022/03/02 04:30:10;;;;;;;21.60;8.80;;;;;;;-2.93;67.12;97137.28;2078091;28;20247;-63
2022/03/02 04:31:11;;;;;;;20.15;9.00;;;;;;;-2.96;67.20;97127.06;2077206;28;20210;-63
2022/03/02 04:32:13;;;;;;;18.90;8.35;;;;;;;-2.92;66.94;97126.16;2076998;28;20197;-63
2022/03/02 04:33:15;;;;;;;18.20;8.93;;;;;;;-2.95;67.08;97126.19;2078201;28;20228;-63
2022/03/02 04:34:16;;;;;;;16.05;9.40;;;;;;;-3.03;67.33;97124.53;2076967;28;20209;-63
2022/03/02 04:35:17;;;;;;;18.92;9.43;;;;;;;-3.09;67.43;97119.44;2076848;28;20232;-63
2022/03/02 04:36:19;;;;;;;23.00;9.68;;;;;;;-3.08;67.59;97118.56;2075730;28;20205;-63
2022/03/02 04:37:20;;;;;;;20.08;9.35;;;;;;;-3.06;68.18;97119.44;2075879;28;20205;-63
2022/03/02 04:38:22;;;;;;;17.95;9.20;;;;;;;-3.00;67.95;97114.28;2073795;28;20197;-63
2022/03/02 04:39:23;;;;;;;15.57;8.55;;;;;;;-3.03;67.49;97114.28;2077743;28;20189;-62
2022/03/02 04:40:25;;;;;;;16.58;8.55;;;;;;;-3.09;67.65;97116.88;2074349;28;20222;-63
2022/03/02 04:41:27;;;;;;;20.92;9.00;;;;;;;-3.12;68.00;97118.63;2074860;28;20201;-63
2022/03/02 04:42:28;;;;;;;16.92;9.45;;;;;;;-3.09;68.07;97114.31;2077132;28;20198;-63
2022/03/02 04:43:29;;;;;;;18.77;10.00;;;;;;;-3.11;68.03;97115.22;2077668;28;20197;-63
2022/03/02 04:44:31;;;;;;;18.10;9.30;;;;;;;-3.14;67.82;97116.06;2075780;28;20198;-63
2022/03/02 04:45:34;;;;;;;14.30;8.40;;;;;;;-3.14;67.86;97115.22;2078708;28;20274;-63